METAR Data
IDs: Format: Raw Decoded Include TAF

Data at: 1413 UTC 21 Apr 2021

METAR for:KCIN (Carroll/Neu Arpt, IA, US)
Text:KCIN 211355Z AUTO 34016KT 10SM BKN040 BKN046 OVC050 M00/M04 A3024 RMK AO2
Temperature: 0.0°C ( 32°F)
Dewpoint: -4.0°C ( 25°F) [RH = 74%]
Pressure (altimeter):30.24 inches Hg (1024.1 mb)
Winds:from the NNW (340 degrees) at 18 MPH (16 knots; 8.2 m/s)
Visibility:10 or more sm (16+ km)
Ceiling:4000 feet AGL
Clouds: broken clouds at 4000 feet AGL, broken clouds at 4600 feet AGL, overcast cloud deck at 5000 feet AGL
QC Flag:automated observation with no human augmentation